Battle Creek, Michigan
Current Conditions -  °F | °C
As of 1:53 AM on Sunday 23 Nov 2014 (Local Time) from KBTL Reporting Station
Overcast Overcast  
Wind Chill: 51°   Ceiling: 2200
Heat Index: 51°   Visibility: 10mi
Dew Point: 43°   Wind: 16mph
Humidity: 74%   Direction: 210°SSW
Pressure: 29.91"   Gusts: NA
Location:  42.32°N, 85.18°W
Report Text: KBTL 230653Z 21014KT 10SM OVC022 11/06 A2991 RMK AO2 SLP133 T01060061 $
Loading
Personal Weather Stations






























Interactive Weather Map New forecast layout! Learn more

10-Day Weather Forecast

Advertisements
Track Severe Weather on mobile